Weather at Al Muzoon Central Helipad

Public forecast

Using degrees Celsius for public forecast. Weather courtesy of forecast.io.

Closest aviation weather report (METAR) to Al Muzoon Central Helipad

Closest report is Al Bateen Executive Airport, 1.4 nm (2.6 km) NE.

2024/06/20 18:00 (retrieved 57 minutes ago)

OMAD 201800Z 05002KT CAVOK 35/26 Q0996 NOSIG

Closest aviation forecast (TAF) to Al Muzoon Central Helipad

Closest forecast is Al Bateen Executive Airport, 1.4 nm (2.6 km) NE.

2024/06/20 18:00 (retrieved 57 minutes ago)

TAF OMAD 201700Z 2018/2200 VRB02KT 8000 NSC BECMG 2107/2109 33011KT BECMG 2115/2117 05005KT